sensor_id;sensor_type;location;lat;lon;timestamp;temperature;humidity
3818;DHT22;1924;48.078;11.516;2023-03-11T00:01:31;4.30;90.40
3818;DHT22;1924;48.078;11.516;2023-03-11T00:03:58;4.20;89.00
3818;DHT22;1924;48.078;11.516;2023-03-11T00:06:25;4.10;89.00
3818;DHT22;1924;48.078;11.516;2023-03-11T00:08:52;4.20;90.00
3818;DHT22;1924;48.078;11.516;2023-03-11T00:11:18;4.30;89.30
3818;DHT22;1924;48.078;11.516;2023-03-11T00:13:46;4.50;89.40
3818;DHT22;1924;48.078;11.516;2023-03-11T00:16:13;4.50;89.00
3818;DHT22;1924;48.078;11.516;2023-03-11T00:18:41;4.50;88.30
3818;DHT22;1924;48.078;11.516;2023-03-11T00:21:13;4.20;88.80
3818;DHT22;1924;48.078;11.516;2023-03-11T00:23:40;4.10;90.00
3818;DHT22;1924;48.078;11.516;2023-03-11T00:26:07;4.10;89.50
3818;DHT22;1924;48.078;11.516;2023-03-11T00:28:34;4.10;88.40
3818;DHT22;1924;48.078;11.516;2023-03-11T00:31:01;4.00;88.30
3818;DHT22;1924;48.078;11.516;2023-03-11T00:33:28;4.00;88.00
3818;DHT22;1924;48.078;11.516;2023-03-11T00:35:57;4.00;88.90
3818;DHT22;1924;48.078;11.516;2023-03-11T00:38:23;3.90;88.30
3818;DHT22;1924;48.078;11.516;2023-03-11T00:40:50;3.90;87.80
3818;DHT22;1924;48.078;11.516;2023-03-11T00:43:17;3.90;88.10
3818;DHT22;1924;48.078;11.516;2023-03-11T00:45:44;4.00;88.30
3818;DHT22;1924;48.078;11.516;2023-03-11T00:48:11;4.00;87.30
3818;DHT22;1924;48.078;11.516;2023-03-11T00:50:39;4.00;86.50
3818;DHT22;1924;48.078;11.516;2023-03-11T00:53:08;4.00;87.50
3818;DHT22;1924;48.078;11.516;2023-03-11T00:55:35;4.10;86.60
3818;DHT22;1924;48.078;11.516;2023-03-11T00:58:06;4.20;86.40
3818;DHT22;1924;48.078;11.516;2023-03-11T01:00:33;4.20;85.70
3818;DHT22;1924;48.078;11.516;2023-03-11T01:03:00;4.10;86.40
3818;DHT22;1924;48.078;11.516;2023-03-11T01:05:29;4.00;87.50
3818;DHT22;1924;48.078;11.516;2023-03-11T01:07:56;3.80;86.30
3818;DHT22;1924;48.078;11.516;2023-03-11T01:10:25;3.90;87.30
3818;DHT22;1924;48.078;11.516;2023-03-11T01:12:52;4.00;87.40
3818;DHT22;1924;48.078;11.516;2023-03-11T01:15:21;3.90;87.90
3818;DHT22;1924;48.078;11.516;2023-03-11T01:17:48;3.90;87.70
3818;DHT22;1924;48.078;11.516;2023-03-11T01:20:15;3.90;87.50
3818;DHT22;1924;48.078;11.516;2023-03-11T01:22:42;4.00;87.00
3818;DHT22;1924;48.078;11.516;2023-03-11T01:25:10;3.80;87.60
3818;DHT22;1924;48.078;11.516;2023-03-11T01:27:39;3.80;88.00
3818;DHT22;1924;48.078;11.516;2023-03-11T01:30:07;3.60;87.70
3818;DHT22;1924;48.078;11.516;2023-03-11T01:32:34;3.70;88.30
3818;DHT22;1924;48.078;11.516;2023-03-11T01:35:01;3.80;88.10
3818;DHT22;1924;48.078;11.516;2023-03-11T01:37:28;3.70;88.80
3818;DHT22;1924;48.078;11.516;2023-03-11T01:39:55;3.50;88.50
3818;DHT22;1924;48.078;11.516;2023-03-11T01:42:22;3.60;89.20
3818;DHT22;1924;48.078;11.516;2023-03-11T01:44:50;3.70;89.20
3818;DHT22;1924;48.078;11.516;2023-03-11T01:47:35;3.60;88.80
3818;DHT22;1924;48.078;11.516;2023-03-11T01:50:04;3.60;89.20
3818;DHT22;1924;48.078;11.516;2023-03-11T01:52:32;3.60;89.10
3818;DHT22;1924;48.078;11.516;2023-03-11T01:54:59;3.70;88.80
3818;DHT22;1924;48.078;11.516;2023-03-11T01:57:26;3.80;89.00
3818;DHT22;1924;48.078;11.516;2023-03-11T01:59:55;3.80;88.30
3818;DHT22;1924;48.078;11.516;2023-03-11T02:02:28;3.80;88.50
3818;DHT22;1924;48.078;11.516;2023-03-11T02:04:57;3.80;88.60
3818;DHT22;1924;48.078;11.516;2023-03-11T02:07:25;3.80;88.30
3818;DHT22;1924;48.078;11.516;2023-03-11T02:09:51;3.60;88.50
3818;DHT22;1924;48.078;11.516;2023-03-11T02:12:19;3.50;89.10
3818;DHT22;1924;48.078;11.516;2023-03-11T02:14:48;3.60;88.70
3818;DHT22;1924;48.078;11.516;2023-03-11T02:17:17;3.30;88.70
3818;DHT22;1924;48.078;11.516;2023-03-11T02:19:55;3.30;89.00
3818;DHT22;1924;48.078;11.516;2023-03-11T02:22:24;3.30;90.30
3818;DHT22;1924;48.078;11.516;2023-03-11T02:24:56;3.40;89.60
3818;DHT22;1924;48.078;11.516;2023-03-11T02:27:26;3.40;89.30
3818;DHT22;1924;48.078;11.516;2023-03-11T02:29:55;3.40;90.00
3818;DHT22;1924;48.078;11.516;2023-03-11T02:32:24;3.30;90.40
3818;DHT22;1924;48.078;11.516;2023-03-11T02:34:51;3.30;89.70
3818;DHT22;1924;48.078;11.516;2023-03-11T02:37:18;3.30;90.30
3818;DHT22;1924;48.078;11.516;2023-03-11T02:39:47;3.40;90.50
3818;DHT22;1924;48.078;11.516;2023-03-11T02:42:17;3.40;90.50
3818;DHT22;1924;48.078;11.516;2023-03-11T02:44:47;3.20;90.90
3818;DHT22;1924;48.078;11.516;2023-03-11T02:47:16;3.20;90.40
3818;DHT22;1924;48.078;11.516;2023-03-11T02:49:43;3.20;90.10
3818;DHT22;1924;48.078;11.516;2023-03-11T02:52:09;3.30;90.00
3818;DHT22;1924;48.078;11.516;2023-03-11T02:54:37;3.30;90.00
3818;DHT22;1924;48.078;11.516;2023-03-11T02:57:04;3.30;89.50
3818;DHT22;1924;48.078;11.516;2023-03-11T02:59:30;3.30;89.30
3818;DHT22;1924;48.078;11.516;2023-03-11T03:01:58;3.10;87.70
3818;DHT22;1924;48.078;11.516;2023-03-11T03:04:25;3.10;87.80
3818;DHT22;1924;48.078;11.516;2023-03-11T05:02:39;2.40;86.40
3818;DHT22;1924;48.078;11.516;2023-03-11T05:05:07;2.40;86.20
3818;DHT22;1924;48.078;11.516;2023-03-11T05:07:34;2.50;86.90
3818;DHT22;1924;48.078;11.516;2023-03-11T05:10:01;2.50;86.70
3818;DHT22;1924;48.078;11.516;2023-03-11T05:12:28;2.50;86.40
3818;DHT22;1924;48.078;11.516;2023-03-11T05:14:54;2.50;87.10
3818;DHT22;1924;48.078;11.516;2023-03-11T05:17:21;2.60;86.90
3818;DHT22;1924;48.078;11.516;2023-03-11T05:19:50;2.60;87.10
3818;DHT22;1924;48.078;11.516;2023-03-11T05:22:18;2.50;86.90
3818;DHT22;1924;48.078;11.516;2023-03-11T05:24:45;2.40;88.00
3818;DHT22;1924;48.078;11.516;2023-03-11T05:27:12;2.40;88.20
3818;DHT22;1924;48.078;11.516;2023-03-11T05:29:43;2.40;87.90
3818;DHT22;1924;48.078;11.516;2023-03-11T05:32:11;2.50;88.50
3818;DHT22;1924;48.078;11.516;2023-03-11T05:34:38;2.40;87.90
3818;DHT22;1924;48.078;11.516;2023-03-11T05:37:06;2.50;87.70
3818;DHT22;1924;48.078;11.516;2023-03-11T05:39:34;2.50;88.40
3818;DHT22;1924;48.078;11.516;2023-03-11T05:42:02;2.50;88.10
3818;DHT22;1924;48.078;11.516;2023-03-11T05:44:29;2.50;88.40
3818;DHT22;1924;48.078;11.516;2023-03-11T05:46:56;2.50;89.50
3818;DHT22;1924;48.078;11.516;2023-03-11T05:49:24;2.50;88.50
3818;DHT22;1924;48.078;11.516;2023-03-11T05:51:50;2.60;88.40
3818;DHT22;1924;48.078;11.516;2023-03-11T05:54:20;2.70;87.80
3818;DHT22;1924;48.078;11.516;2023-03-11T05:56:47;2.60;87.60
3818;DHT22;1924;48.078;11.516;2023-03-11T05:59:15;2.60;88.20
3818;DHT22;1924;48.078;11.516;2023-03-11T06:01:42;2.60;88.90
3818;DHT22;1924;48.078;11.516;2023-03-11T06:04:10;2.60;88.50
3818;DHT22;1924;48.078;11.516;2023-03-11T06:06:37;2.70;89.10
3818;DHT22;1924;48.078;11.516;2023-03-11T06:09:05;2.70;90.10
3818;DHT22;1924;48.078;11.516;2023-03-11T06:11:33;2.70;88.60
3818;DHT22;1924;48.078;11.516;2023-03-11T06:14:00;2.60;89.40
3818;DHT22;1924;48.078;11.516;2023-03-11T06:16:27;2.70;89.30
3818;DHT22;1924;48.078;11.516;2023-03-11T06:18:54;2.70;89.80
3818;DHT22;1924;48.078;11.516;2023-03-11T06:21:22;2.70;89.00
3818;DHT22;1924;48.078;11.516;2023-03-11T06:23:51;2.60;88.40
3818;DHT22;1924;48.078;11.516;2023-03-11T06:26:19;2.60;89.00
3818;DHT22;1924;48.078;11.516;2023-03-11T06:28:48;2.60;88.80
3818;DHT22;1924;48.078;11.516;2023-03-11T06:31:18;2.80;87.80
3818;DHT22;1924;48.078;11.516;2023-03-11T06:33:45;2.70;86.90
3818;DHT22;1924;48.078;11.516;2023-03-11T06:36:14;2.70;86.30
3818;DHT22;1924;48.078;11.516;2023-03-11T06:38:41;2.60;87.20
3818;DHT22;1924;48.078;11.516;2023-03-11T06:41:09;2.70;86.80
3818;DHT22;1924;48.078;11.516;2023-03-11T06:43:36;2.70;85.70
3818;DHT22;1924;48.078;11.516;2023-03-11T06:46:09;2.70;85.70
3818;DHT22;1924;48.078;11.516;2023-03-11T06:48:36;2.70;84.50
3818;DHT22;1924;48.078;11.516;2023-03-11T06:51:03;2.80;86.20
3818;DHT22;1924;48.078;11.516;2023-03-11T06:53:30;3.00;85.00
3818;DHT22;1924;48.078;11.516;2023-03-11T06:55:58;2.90;85.10
3818;DHT22;1924;48.078;11.516;2023-03-11T06:58:25;3.00;84.80
3818;DHT22;1924;48.078;11.516;2023-03-11T07:00:52;3.10;84.20
3818;DHT22;1924;48.078;11.516;2023-03-11T07:03:21;3.10;82.70
3818;DHT22;1924;48.078;11.516;2023-03-11T07:05:51;3.20;82.90
3818;DHT22;1924;48.078;11.516;2023-03-11T07:08:18;3.20;82.10
3818;DHT22;1924;48.078;11.516;2023-03-11T07:10:44;3.10;79.80
3818;DHT22;1924;48.078;11.516;2023-03-11T07:13:13;3.00;81.50
3818;DHT22;1924;48.078;11.516;2023-03-11T07:15:39;3.00;80.80
3818;DHT22;1924;48.078;11.516;2023-03-11T07:18:06;2.90;79.70
3818;DHT22;1924;48.078;11.516;2023-03-11T07:20:34;2.90;80.60
3818;DHT22;1924;48.078;11.516;2023-03-11T07:23:01;3.00;79.70
3818;DHT22;1924;48.078;11.516;2023-03-11T07:25:27;3.00;78.20
3818;DHT22;1924;48.078;11.516;2023-03-11T07:27:54;3.40;78.10
3818;DHT22;1924;48.078;11.516;2023-03-11T07:30:21;3.80;77.30
3818;DHT22;1924;48.078;11.516;2023-03-11T07:32:47;4.00;75.40
3818;DHT22;1924;48.078;11.516;2023-03-11T07:35:15;3.80;75.50
3818;DHT22;1924;48.078;11.516;2023-03-11T07:37:43;3.60;76.90
3818;DHT22;1924;48.078;11.516;2023-03-11T07:40:11;3.80;76.90
3818;DHT22;1924;48.078;11.516;2023-03-11T07:42:38;3.70;76.50
3818;DHT22;1924;48.078;11.516;2023-03-11T07:45:06;3.60;77.00
3818;DHT22;1924;48.078;11.516;2023-03-11T07:47:32;4.00;77.40
3818;DHT22;1924;48.078;11.516;2023-03-11T07:49:59;4.20;77.10
3818;DHT22;1924;48.078;11.516;2023-03-11T07:52:29;4.70;75.90
3818;DHT22;1924;48.078;11.516;2023-03-11T07:54:57;4.90;74.70
3818;DHT22;1924;48.078;11.516;2023-03-11T07:57:24;4.90;74.10
3818;DHT22;1924;48.078;11.516;2023-03-11T07:59:50;4.90;74.80
3818;DHT22;1924;48.078;11.516;2023-03-11T08:02:17;5.00;74.70
3818;DHT22;1924;48.078;11.516;2023-03-11T08:04:44;5.20;75.20
3818;DHT22;1924;48.078;11.516;2023-03-11T08:07:10;5.50;74.00
3818;DHT22;1924;48.078;11.516;2023-03-11T08:09:37;5.70;73.90
3818;DHT22;1924;48.078;11.516;2023-03-11T08:12:06;6.00;74.10
3818;DHT22;1924;48.078;11.516;2023-03-11T08:14:33;6.00;73.00
3818;DHT22;1924;48.078;11.516;2023-03-11T08:16:59;5.80;70.80
3818;DHT22;1924;48.078;11.516;2023-03-11T08:19:26;5.70;71.40
3818;DHT22;1924;48.078;11.516;2023-03-11T08:21:53;5.60;71.70
3818;DHT22;1924;48.078;11.516;2023-03-11T08:24:20;5.50;70.70
3818;DHT22;1924;48.078;11.516;2023-03-11T08:26:46;5.20;71.40
3818;DHT22;1924;48.078;11.516;2023-03-11T08:29:14;5.00;71.50
3818;DHT22;1924;48.078;11.516;2023-03-11T08:31:41;4.80;73.40
3818;DHT22;1924;48.078;11.516;2023-03-11T08:34:09;4.70;73.80
3818;DHT22;1924;48.078;11.516;2023-03-11T08:36:36;4.50;73.00
3818;DHT22;1924;48.078;11.516;2023-03-11T08:39:03;4.30;74.40
3818;DHT22;1924;48.078;11.516;2023-03-11T08:41:30;4.50;75.40
3818;DHT22;1924;48.078;11.516;2023-03-11T08:43:57;4.60;74.70
3818;DHT22;1924;48.078;11.516;2023-03-11T08:46:27;5.00;75.50
3818;DHT22;1924;48.078;11.516;2023-03-11T08:48:54;4.90;73.30
3818;DHT22;1924;48.078;11.516;2023-03-11T08:51:22;4.90;74.90
3818;DHT22;1924;48.078;11.516;2023-03-11T08:53:49;5.10;73.70
3818;DHT22;1924;48.078;11.516;2023-03-11T08:56:16;5.10;73.70
3818;DHT22;1924;48.078;11.516;2023-03-11T08:58:44;4.90;74.20
3818;DHT22;1924;48.078;11.516;2023-03-11T09:01:11;5.10;73.10
3818;DHT22;1924;48.078;11.516;2023-03-11T09:03:40;5.20;72.50
3818;DHT22;1924;48.078;11.516;2023-03-11T09:06:08;4.90;73.50
3818;DHT22;1924;48.078;11.516;2023-03-11T09:08:36;5.20;73.00
3818;DHT22;1924;48.078;11.516;2023-03-11T09:11:03;5.40;72.60
3818;DHT22;1924;48.078;11.516;2023-03-11T09:13:30;5.60;72.60
3818;DHT22;1924;48.078;11.516;2023-03-11T09:15:57;5.90;72.50
3818;DHT22;1924;48.078;11.516;2023-03-11T09:18:24;5.80;70.40
3818;DHT22;1924;48.078;11.516;2023-03-11T09:20:53;5.80;69.90
3818;DHT22;1924;48.078;11.516;2023-03-11T09:23:22;5.40;69.20
3818;DHT22;1924;48.078;11.516;2023-03-11T09:25:49;5.50;70.00
3818;DHT22;1924;48.078;11.516;2023-03-11T09:28:18;5.80;69.30
3818;DHT22;1924;48.078;11.516;2023-03-11T09:30:45;5.80;68.70
3818;DHT22;1924;48.078;11.516;2023-03-11T09:33:12;5.60;70.30
3818;DHT22;1924;48.078;11.516;2023-03-11T09:35:39;5.90;69.40
3818;DHT22;1924;48.078;11.516;2023-03-11T09:38:07;5.90;68.40
3818;DHT22;1924;48.078;11.516;2023-03-11T09:40:46;6.00;69.00
3818;DHT22;1924;48.078;11.516;2023-03-11T09:43:24;5.60;67.60
3818;DHT22;1924;48.078;11.516;2023-03-11T09:46:00;5.50;70.60
3818;DHT22;1924;48.078;11.516;2023-03-11T09:48:33;5.60;68.20
3818;DHT22;1924;48.078;11.516;2023-03-11T09:51:05;5.80;69.40
3818;DHT22;1924;48.078;11.516;2023-03-11T09:53:40;6.10;70.20
3818;DHT22;1924;48.078;11.516;2023-03-11T09:56:08;6.20;70.20
3818;DHT22;1924;48.078;11.516;2023-03-11T09:58:38;6.40;69.50
3818;DHT22;1924;48.078;11.516;2023-03-11T10:01:14;6.70;68.50
3818;DHT22;1924;48.078;11.516;2023-03-11T10:03:43;6.80;67.30
3818;DHT22;1924;48.078;11.516;2023-03-11T10:06:15;6.90;65.30
3818;DHT22;1924;48.078;11.516;2023-03-11T10:08:46;6.80;66.90
3818;DHT22;1924;48.078;11.516;2023-03-11T10:11:31;7.00;66.70
3818;DHT22;1924;48.078;11.516;2023-03-11T10:14:11;6.80;65.20
3818;DHT22;1924;48.078;11.516;2023-03-11T10:16:48;7.20;66.20
3818;DHT22;1924;48.078;11.516;2023-03-11T10:19:26;7.20;65.50
3818;DHT22;1924;48.078;11.516;2023-03-11T10:22:01;7.20;64.50
3818;DHT22;1924;48.078;11.516;2023-03-11T10:24:47;6.90;63.50
3818;DHT22;1924;48.078;11.516;2023-03-11T10:27:16;7.20;65.10
3818;DHT22;1924;48.078;11.516;2023-03-11T10:29:52;6.80;62.30
3818;DHT22;1924;48.078;11.516;2023-03-11T10:32:24;6.80;65.60
3818;DHT22;1924;48.078;11.516;2023-03-11T10:34:57;7.00;63.40
3818;DHT22;1924;48.078;11.516;2023-03-11T10:37:27;6.80;64.50
3818;DHT22;1924;48.078;11.516;2023-03-11T10:39:56;6.70;64.30
3818;DHT22;1924;48.078;11.516;2023-03-11T10:42:31;7.10;64.40
3818;DHT22;1924;48.078;11.516;2023-03-11T10:44:59;7.30;61.80
3818;DHT22;1924;48.078;11.516;2023-03-11T10:47:26;7.50;65.40
3818;DHT22;1924;48.078;11.516;2023-03-11T10:49:54;7.90;63.40
3818;DHT22;1924;48.078;11.516;2023-03-11T10:52:21;7.40;60.50
3818;DHT22;1924;48.078;11.516;2023-03-11T10:54:59;7.60;61.80
3818;DHT22;1924;48.078;11.516;2023-03-11T10:57:29;8.00;60.10
3818;DHT22;1924;48.078;11.516;2023-03-11T10:59:59;8.00;61.60
3818;DHT22;1924;48.078;11.516;2023-03-11T11:02:28;7.80;58.80
3818;DHT22;1924;48.078;11.516;2023-03-11T11:05:06;8.00;60.60
3818;DHT22;1924;48.078;11.516;2023-03-11T11:07:35;7.60;58.60
3818;DHT22;1924;48.078;11.516;2023-03-11T11:10:16;7.20;58.70
3818;DHT22;1924;48.078;11.516;2023-03-11T11:12:52;6.80;59.70
3818;DHT22;1924;48.078;11.516;2023-03-11T11:15:21;7.10;60.00
3818;DHT22;1924;48.078;11.516;2023-03-11T11:17:49;7.10;58.80
3818;DHT22;1924;48.078;11.516;2023-03-11T11:20:19;7.30;59.40
3818;DHT22;1924;48.078;11.516;2023-03-11T11:22:51;7.60;60.50
3818;DHT22;1924;48.078;11.516;2023-03-11T11:25:31;7.70;57.70
3818;DHT22;1924;48.078;11.516;2023-03-11T11:28:01;7.20;57.90
3818;DHT22;1924;48.078;11.516;2023-03-11T11:30:30;7.40;59.30
3818;DHT22;1924;48.078;11.516;2023-03-11T11:33:21;7.60;58.40
3818;DHT22;1924;48.078;11.516;2023-03-11T11:35:49;7.50;57.80
3818;DHT22;1924;48.078;11.516;2023-03-11T11:38:17;7.20;58.40
3818;DHT22;1924;48.078;11.516;2023-03-11T11:40:45;7.30;59.10
3818;DHT22;1924;48.078;11.516;2023-03-11T11:43:16;7.50;57.70
3818;DHT22;1924;48.078;11.516;2023-03-11T11:45:45;7.30;57.10
3818;DHT22;1924;48.078;11.516;2023-03-11T11:48:16;7.40;57.90
3818;DHT22;1924;48.078;11.516;2023-03-11T11:50:47;7.50;57.90
3818;DHT22;1924;48.078;11.516;2023-03-11T11:53:27;7.20;57.90
3818;DHT22;1924;48.078;11.516;2023-03-11T11:55:55;6.90;59.50
3818;DHT22;1924;48.078;11.516;2023-03-11T11:58:22;6.90;60.40
3818;DHT22;1924;48.078;11.516;2023-03-11T12:00:57;7.00;61.50
3818;DHT22;1924;48.078;11.516;2023-03-11T12:03:55;7.20;60.30
3818;DHT22;1924;48.078;11.516;2023-03-11T12:06:30;7.60;58.50
3818;DHT22;1924;48.078;11.516;2023-03-11T12:09:11;7.50;58.50
3818;DHT22;1924;48.078;11.516;2023-03-11T12:11:48;6.90;57.70
3818;DHT22;1924;48.078;11.516;2023-03-11T12:14:18;6.50;58.10
3818;DHT22;1924;48.078;11.516;2023-03-11T12:16:51;7.10;61.60
3818;DHT22;1924;48.078;11.516;2023-03-11T12:19:29;7.50;58.30
3818;DHT22;1924;48.078;11.516;2023-03-11T12:25:08;7.90;58.90
3818;DHT22;1924;48.078;11.516;2023-03-11T12:27:44;8.10;58.90
3818;DHT22;1924;48.078;11.516;2023-03-11T12:30:15;8.20;57.60
3818;DHT22;1924;48.078;11.516;2023-03-11T12:32:47;8.30;56.40
3818;DHT22;1924;48.078;11.516;2023-03-11T12:35:20;8.20;57.80
3818;DHT22;1924;48.078;11.516;2023-03-11T12:37:56;8.30;56.70
3818;DHT22;1924;48.078;11.516;2023-03-11T12:40:48;8.60;57.50
3818;DHT22;1924;48.078;11.516;2023-03-11T12:46:10;8.60;57.30
3818;DHT22;1924;48.078;11.516;2023-03-11T12:48:42;8.60;56.00
3818;DHT22;1924;48.078;11.516;2023-03-11T12:51:37;8.30;56.40
3818;DHT22;1924;48.078;11.516;2023-03-11T12:54:27;7.70;54.70
3818;DHT22;1924;48.078;11.516;2023-03-11T12:56:56;6.50;56.60
3818;DHT22;1924;48.078;11.516;2023-03-11T13:02:28;7.20;58.90
3818;DHT22;1924;48.078;11.516;2023-03-11T13:05:09;7.50;58.20
3818;DHT22;1924;48.078;11.516;2023-03-11T13:07:46;7.30;58.60
3818;DHT22;1924;48.078;11.516;2023-03-11T13:10:17;7.50;59.00
3818;DHT22;1924;48.078;11.516;2023-03-11T13:12:46;7.80;58.80
3818;DHT22;1924;48.078;11.516;2023-03-11T13:15:36;8.10;57.90
3818;DHT22;1924;48.078;11.516;2023-03-11T13:18:14;8.10;56.70
3818;DHT22;1924;48.078;11.516;2023-03-11T13:20:48;7.40;56.10
3818;DHT22;1924;48.078;11.516;2023-03-11T13:23:33;6.80;54.90
3818;DHT22;1924;48.078;11.516;2023-03-11T13:26:23;6.70;58.50
3818;DHT22;1924;48.078;11.516;2023-03-11T13:35:15;7.60;59.40
3818;DHT22;1924;48.078;11.516;2023-03-11T13:37:55;7.70;55.80
3818;DHT22;1924;48.078;11.516;2023-03-11T13:40:29;7.60;58.10
3818;DHT22;1924;48.078;11.516;2023-03-11T13:43:01;7.20;57.20
3818;DHT22;1924;48.078;11.516;2023-03-11T13:45:30;6.90;58.20
3818;DHT22;1924;48.078;11.516;2023-03-11T13:48:02;6.90;59.70
3818;DHT22;1924;48.078;11.516;2023-03-11T13:50:34;6.80;56.90
3818;DHT22;1924;48.078;11.516;2023-03-11T13:53:06;6.80;56.60
3818;DHT22;1924;48.078;11.516;2023-03-11T13:55:37;6.90;58.60
3818;DHT22;1924;48.078;11.516;2023-03-11T13:58:14;7.00;60.10
3818;DHT22;1924;48.078;11.516;2023-03-11T14:00:47;7.10;59.30
3818;DHT22;1924;48.078;11.516;2023-03-11T14:03:15;7.10;59.20
3818;DHT22;1924;48.078;11.516;2023-03-11T14:05:47;7.00;58.10
3818;DHT22;1924;48.078;11.516;2023-03-11T14:08:19;6.70;59.90
3818;DHT22;1924;48.078;11.516;2023-03-11T14:10:51;6.70;60.40
3818;DHT22;1924;48.078;11.516;2023-03-11T14:13:18;6.40;59.80
3818;DHT22;1924;48.078;11.516;2023-03-11T14:15:51;6.40;60.40
3818;DHT22;1924;48.078;11.516;2023-03-11T14:18:34;6.20;61.00
3818;DHT22;1924;48.078;11.516;2023-03-11T14:21:03;6.30;60.50
3818;DHT22;1924;48.078;11.516;2023-03-11T14:23:33;6.10;60.30
3818;DHT22;1924;48.078;11.516;2023-03-11T14:26:04;5.90;59.80
3818;DHT22;1924;48.078;11.516;2023-03-11T14:28:34;5.80;61.00
3818;DHT22;1924;48.078;11.516;2023-03-11T14:31:02;5.80;62.00
3818;DHT22;1924;48.078;11.516;2023-03-11T14:33:31;5.70;61.20
3818;DHT22;1924;48.078;11.516;2023-03-11T14:36:00;5.80;62.30
3818;DHT22;1924;48.078;11.516;2023-03-11T14:38:29;6.00;62.30
3818;DHT22;1924;48.078;11.516;2023-03-11T14:40:56;6.00;61.30
3818;DHT22;1924;48.078;11.516;2023-03-11T14:43:23;5.90;61.10
3818;DHT22;1924;48.078;11.516;2023-03-11T14:45:51;5.70;60.70
3818;DHT22;1924;48.078;11.516;2023-03-11T14:48:22;5.80;64.60
3818;DHT22;1924;48.078;11.516;2023-03-11T14:50:52;5.90;65.90
3818;DHT22;1924;48.078;11.516;2023-03-11T14:53:24;5.90;62.80
3818;DHT22;1924;48.078;11.516;2023-03-11T14:55:55;6.20;62.80
3818;DHT22;1924;48.078;11.516;2023-03-11T14:58:27;6.20;61.90
3818;DHT22;1924;48.078;11.516;2023-03-11T15:00:58;6.30;61.50
3818;DHT22;1924;48.078;11.516;2023-03-11T15:03:29;6.30;60.40
3818;DHT22;1924;48.078;11.516;2023-03-11T15:06:00;6.20;61.30
3818;DHT22;1924;48.078;11.516;2023-03-11T15:08:31;6.30;61.30
3818;DHT22;1924;48.078;11.516;2023-03-11T15:11:22;6.00;60.60
3818;DHT22;1924;48.078;11.516;2023-03-11T15:13:50;5.80;60.90
3818;DHT22;1924;48.078;11.516;2023-03-11T15:16:28;5.80;62.60
3818;DHT22;1924;48.078;11.516;2023-03-11T15:18:55;5.80;63.00
3818;DHT22;1924;48.078;11.516;2023-03-11T15:21:26;5.50;61.60
3818;DHT22;1924;48.078;11.516;2023-03-11T15:23:58;5.50;62.60
3818;DHT22;1924;48.078;11.516;2023-03-11T15:26:27;5.70;63.70
3818;DHT22;1924;48.078;11.516;2023-03-11T15:28:56;5.60;62.30
3818;DHT22;1924;48.078;11.516;2023-03-11T15:31:27;5.30;63.60
3818;DHT22;1924;48.078;11.516;2023-03-11T15:34:06;5.20;62.70
3818;DHT22;1924;48.078;11.516;2023-03-11T15:36:37;5.10;63.00
3818;DHT22;1924;48.078;11.516;2023-03-11T15:39:12;5.30;62.20
3818;DHT22;1924;48.078;11.516;2023-03-11T15:41:39;5.50;64.60
3818;DHT22;1924;48.078;11.516;2023-03-11T15:44:24;5.50;63.90
3818;DHT22;1924;48.078;11.516;2023-03-11T15:46:52;5.50;64.70
3818;DHT22;1924;48.078;11.516;2023-03-11T15:49:19;5.40;65.90
3818;DHT22;1924;48.078;11.516;2023-03-11T15:51:47;5.30;63.50
3818;DHT22;1924;48.078;11.516;2023-03-11T15:54:14;5.30;64.70
3818;DHT22;1924;48.078;11.516;2023-03-11T15:56:41;5.30;66.80
3818;DHT22;1924;48.078;11.516;2023-03-11T15:59:14;5.40;64.60
3818;DHT22;1924;48.078;11.516;2023-03-11T16:01:42;5.30;65.80
3818;DHT22;1924;48.078;11.516;2023-03-11T16:04:11;5.20;64.20
3818;DHT22;1924;48.078;11.516;2023-03-11T16:06:39;5.20;64.50
3818;DHT22;1924;48.078;11.516;2023-03-11T16:09:07;5.10;64.80
3818;DHT22;1924;48.078;11.516;2023-03-11T16:11:34;5.00;65.00
3818;DHT22;1924;48.078;11.516;2023-03-11T16:14:02;5.10;66.40
3818;DHT22;1924;48.078;11.516;2023-03-11T16:16:29;5.30;65.00
3818;DHT22;1924;48.078;11.516;2023-03-11T16:18:55;5.30;65.90
3818;DHT22;1924;48.078;11.516;2023-03-11T16:21:26;5.10;64.70
3818;DHT22;1924;48.078;11.516;2023-03-11T16:23:56;5.00;65.50
3818;DHT22;1924;48.078;11.516;2023-03-11T16:26:24;5.00;66.00
3818;DHT22;1924;48.078;11.516;2023-03-11T16:28:51;5.00;66.40
3818;DHT22;1924;48.078;11.516;2023-03-11T16:31:17;4.80;65.40
3818;DHT22;1924;48.078;11.516;2023-03-11T16:33:44;4.80;66.40
3818;DHT22;1924;48.078;11.516;2023-03-11T16:36:11;4.90;65.20
3818;DHT22;1924;48.078;11.516;2023-03-11T16:38:42;4.90;65.10
3818;DHT22;1924;48.078;11.516;2023-03-11T16:41:09;4.90;66.40
3818;DHT22;1924;48.078;11.516;2023-03-11T16:43:37;4.80;66.80
3818;DHT22;1924;48.078;11.516;2023-03-11T16:46:04;4.70;66.30
3818;DHT22;1924;48.078;11.516;2023-03-11T16:48:32;4.60;66.80
3818;DHT22;1924;48.078;11.516;2023-03-11T16:50:59;4.60;67.40
3818;DHT22;1924;48.078;11.516;2023-03-11T16:53:26;4.60;67.70
3818;DHT22;1924;48.078;11.516;2023-03-11T16:55:53;4.50;67.90
3818;DHT22;1924;48.078;11.516;2023-03-11T16:58:20;4.70;67.70
3818;DHT22;1924;48.078;11.516;2023-03-11T17:00:48;4.70;68.20
3818;DHT22;1924;48.078;11.516;2023-03-11T17:03:16;4.60;67.50
3818;DHT22;1924;48.078;11.516;2023-03-11T17:05:43;4.60;69.20
3818;DHT22;1924;48.078;11.516;2023-03-11T17:08:10;4.70;66.90
3818;DHT22;1924;48.078;11.516;2023-03-11T17:10:39;4.70;68.00
3818;DHT22;1924;48.078;11.516;2023-03-11T17:13:07;4.70;69.10
3818;DHT22;1924;48.078;11.516;2023-03-11T17:15:34;4.60;68.90
3818;DHT22;1924;48.078;11.516;2023-03-11T17:18:04;4.60;68.20
3818;DHT22;1924;48.078;11.516;2023-03-11T17:20:31;4.40;69.00
3818;DHT22;1924;48.078;11.516;2023-03-11T17:22:59;4.30;68.50
3818;DHT22;1924;48.078;11.516;2023-03-11T17:25:26;4.40;69.10
3818;DHT22;1924;48.078;11.516;2023-03-11T17:27:52;4.40;69.10
3818;DHT22;1924;48.078;11.516;2023-03-11T17:30:19;4.40;69.50
3818;DHT22;1924;48.078;11.516;2023-03-11T17:32:46;4.40;69.00
3818;DHT22;1924;48.078;11.516;2023-03-11T17:35:14;4.30;69.60
3818;DHT22;1924;48.078;11.516;2023-03-11T17:37:41;4.40;70.80
3818;DHT22;1924;48.078;11.516;2023-03-11T17:40:09;4.50;71.70
3818;DHT22;1924;48.078;11.516;2023-03-11T17:42:37;4.50;70.00
3818;DHT22;1924;48.078;11.516;2023-03-11T17:45:05;4.60;68.50
3818;DHT22;1924;48.078;11.516;2023-03-11T17:47:32;4.50;69.40
3818;DHT22;1924;48.078;11.516;2023-03-11T17:50:01;4.40;69.00
3818;DHT22;1924;48.078;11.516;2023-03-11T17:52:29;4.40;69.20
3818;DHT22;1924;48.078;11.516;2023-03-11T17:54:56;4.20;69.00
3818;DHT22;1924;48.078;11.516;2023-03-11T17:57:23;4.10;70.20
3818;DHT22;1924;48.078;11.516;2023-03-11T17:59:50;4.10;69.60
3818;DHT22;1924;48.078;11.516;2023-03-11T18:02:17;4.20;71.20
3818;DHT22;1924;48.078;11.516;2023-03-11T18:04:48;4.10;70.60
3818;DHT22;1924;48.078;11.516;2023-03-11T18:07:16;4.10;71.50
3818;DHT22;1924;48.078;11.516;2023-03-11T18:09:45;4.10;69.50
3818;DHT22;1924;48.078;11.516;2023-03-11T18:12:11;4.10;70.40
3818;DHT22;1924;48.078;11.516;2023-03-11T18:14:38;4.10;70.80
3818;DHT22;1924;48.078;11.516;2023-03-11T18:17:05;4.10;71.50
3818;DHT22;1924;48.078;11.516;2023-03-11T18:19:32;4.10;71.10
3818;DHT22;1924;48.078;11.516;2023-03-11T18:21:59;4.10;70.20
3818;DHT22;1924;48.078;11.516;2023-03-11T18:24:25;4.20;71.10
3818;DHT22;1924;48.078;11.516;2023-03-11T18:26:53;4.20;70.60
3818;DHT22;1924;48.078;11.516;2023-03-11T18:29:20;4.00;69.30